sensor_id;sensor_type;location;lat;lon;timestamp;temperature;humidity
5192;DHT22;2615;44.524;11.284;2023-02-21T00:01:38;9.40;58.90
5192;DHT22;2615;44.524;11.284;2023-02-21T00:04:24;9.40;58.90
5192;DHT22;2615;44.524;11.284;2023-02-21T00:07:11;9.40;59.00
5192;DHT22;2615;44.524;11.284;2023-02-21T00:09:56;9.40;59.00
5192;DHT22;2615;44.524;11.284;2023-02-21T00:12:42;9.40;59.10
5192;DHT22;2615;44.524;11.284;2023-02-21T00:15:27;9.40;59.10
5192;DHT22;2615;44.524;11.284;2023-02-21T00:18:13;9.30;59.00
5192;DHT22;2615;44.524;11.284;2023-02-21T00:20:58;9.30;59.10
5192;DHT22;2615;44.524;11.284;2023-02-21T00:23:45;9.30;59.10
5192;DHT22;2615;44.524;11.284;2023-02-21T00:26:31;9.30;59.20
5192;DHT22;2615;44.524;11.284;2023-02-21T00:29:17;9.30;59.20
5192;DHT22;2615;44.524;11.284;2023-02-21T00:32:03;9.30;59.30
5192;DHT22;2615;44.524;11.284;2023-02-21T00:34:48;9.30;59.30
5192;DHT22;2615;44.524;11.284;2023-02-21T00:37:34;9.30;59.30
5192;DHT22;2615;44.524;11.284;2023-02-21T00:40:21;9.20;59.30
5192;DHT22;2615;44.524;11.284;2023-02-21T00:43:07;9.20;59.40
5192;DHT22;2615;44.524;11.284;2023-02-21T00:45:53;9.20;59.40
5192;DHT22;2615;44.524;11.284;2023-02-21T00:48:38;9.20;59.40
5192;DHT22;2615;44.524;11.284;2023-02-21T00:51:24;9.20;59.40
5192;DHT22;2615;44.524;11.284;2023-02-21T00:54:10;9.20;59.50
5192;DHT22;2615;44.524;11.284;2023-02-21T00:56:57;9.10;59.50
5192;DHT22;2615;44.524;11.284;2023-02-21T00:59:42;9.10;59.60
5192;DHT22;2615;44.524;11.284;2023-02-21T01:02:28;9.10;59.60
5192;DHT22;2615;44.524;11.284;2023-02-21T01:05:13;9.10;59.60
5192;DHT22;2615;44.524;11.284;2023-02-21T01:07:59;9.10;59.60
5192;DHT22;2615;44.524;11.284;2023-02-21T01:10:44;9.10;59.70
5192;DHT22;2615;44.524;11.284;2023-02-21T01:13:31;9.00;59.60
5192;DHT22;2615;44.524;11.284;2023-02-21T01:16:17;9.00;59.70
5192;DHT22;2615;44.524;11.284;2023-02-21T01:19:02;9.00;59.70
5192;DHT22;2615;44.524;11.284;2023-02-21T01:21:48;9.00;59.80
5192;DHT22;2615;44.524;11.284;2023-02-21T01:24:33;9.00;59.80
5192;DHT22;2615;44.524;11.284;2023-02-21T01:27:19;9.00;59.80
5192;DHT22;2615;44.524;11.284;2023-02-21T01:30:07;8.90;59.80
5192;DHT22;2615;44.524;11.284;2023-02-21T01:32:52;8.90;59.90
5192;DHT22;2615;44.524;11.284;2023-02-21T01:35:38;8.90;59.90
5192;DHT22;2615;44.524;11.284;2023-02-21T01:38:23;8.90;59.90
5192;DHT22;2615;44.524;11.284;2023-02-21T01:41:09;8.90;60.00
5192;DHT22;2615;44.524;11.284;2023-02-21T01:43:59;8.90;60.00
5192;DHT22;2615;44.524;11.284;2023-02-21T01:46:46;8.90;60.00
5192;DHT22;2615;44.524;11.284;2023-02-21T01:49:32;8.90;60.10
5192;DHT22;2615;44.524;11.284;2023-02-21T01:52:19;8.80;60.00
5192;DHT22;2615;44.524;11.284;2023-02-21T01:55:05;8.80;60.00
5192;DHT22;2615;44.524;11.284;2023-02-21T01:57:52;8.80;60.10
5192;DHT22;2615;44.524;11.284;2023-02-21T02:00:38;8.80;60.10
5192;DHT22;2615;44.524;11.284;2023-02-21T02:03:26;8.80;60.10
5192;DHT22;2615;44.524;11.284;2023-02-21T02:06:13;8.80;60.20
5192;DHT22;2615;44.524;11.284;2023-02-21T02:09:13;8.70;60.10
5192;DHT22;2615;44.524;11.284;2023-02-21T02:12:14;8.70;60.10
5192;DHT22;2615;44.524;11.284;2023-02-21T02:15:08;8.70;60.20
5192;DHT22;2615;44.524;11.284;2023-02-21T02:17:51;8.70;60.20
5192;DHT22;2615;44.524;11.284;2023-02-21T02:24:00;8.60;60.20
5192;DHT22;2615;44.524;11.284;2023-02-21T02:29:55;8.60;60.20
5192;DHT22;2615;44.524;11.284;2023-02-21T02:33:00;8.50;60.20
5192;DHT22;2615;44.524;11.284;2023-02-21T02:35:38;8.50;60.30
5192;DHT22;2615;44.524;11.284;2023-02-21T02:38:13;8.50;60.20
5192;DHT22;2615;44.524;11.284;2023-02-21T02:40:48;8.50;60.30
5192;DHT22;2615;44.524;11.284;2023-02-21T02:43:21;8.50;60.30
5192;DHT22;2615;44.524;11.284;2023-02-21T02:45:57;8.50;60.40
5192;DHT22;2615;44.524;11.284;2023-02-21T02:48:29;8.50;60.40
5192;DHT22;2615;44.524;11.284;2023-02-21T02:51:01;8.40;60.40
5192;DHT22;2615;44.524;11.284;2023-02-21T02:53:29;8.40;60.50
5192;DHT22;2615;44.524;11.284;2023-02-21T02:56:00;8.40;60.50
5192;DHT22;2615;44.524;11.284;2023-02-21T02:58:31;8.40;60.60
5192;DHT22;2615;44.524;11.284;2023-02-21T03:01:19;8.40;60.70
5192;DHT22;2615;44.524;11.284;2023-02-21T03:04:05;8.30;60.70
5192;DHT22;2615;44.524;11.284;2023-02-21T03:06:46;8.30;60.70
5192;DHT22;2615;44.524;11.284;2023-02-21T03:09:18;8.30;60.80
5192;DHT22;2615;44.524;11.284;2023-02-21T03:11:55;8.30;60.80
5192;DHT22;2615;44.524;11.284;2023-02-21T03:14:30;8.30;60.80
5192;DHT22;2615;44.524;11.284;2023-02-21T03:17:04;8.30;60.90
5192;DHT22;2615;44.524;11.284;2023-02-21T03:19:37;8.30;61.00
5192;DHT22;2615;44.524;11.284;2023-02-21T03:22:09;8.30;61.00
5192;DHT22;2615;44.524;11.284;2023-02-21T03:24:39;8.30;61.00
5192;DHT22;2615;44.524;11.284;2023-02-21T03:27:10;8.20;61.00
5192;DHT22;2615;44.524;11.284;2023-02-21T03:29:39;8.20;61.00
5192;DHT22;2615;44.524;11.284;2023-02-21T03:32:11;8.20;61.10
5192;DHT22;2615;44.524;11.284;2023-02-21T03:34:42;8.20;61.20
5192;DHT22;2615;44.524;11.284;2023-02-21T03:37:19;8.20;61.20
5192;DHT22;2615;44.524;11.284;2023-02-21T03:39:48;8.20;61.20
5192;DHT22;2615;44.524;11.284;2023-02-21T03:42:16;8.20;61.20
5192;DHT22;2615;44.524;11.284;2023-02-21T03:44:44;8.20;61.30
5192;DHT22;2615;44.524;11.284;2023-02-21T03:47:12;8.20;61.30
5192;DHT22;2615;44.524;11.284;2023-02-21T03:49:40;8.10;61.30
5192;DHT22;2615;44.524;11.284;2023-02-21T03:52:11;8.10;61.30
5192;DHT22;2615;44.524;11.284;2023-02-21T03:54:39;8.10;61.30
5192;DHT22;2615;44.524;11.284;2023-02-21T03:57:08;8.10;61.40
5192;DHT22;2615;44.524;11.284;2023-02-21T03:59:36;8.10;61.40
5192;DHT22;2615;44.524;11.284;2023-02-21T04:02:04;8.10;61.40
5192;DHT22;2615;44.524;11.284;2023-02-21T04:04:32;8.10;61.50
5192;DHT22;2615;44.524;11.284;2023-02-21T04:07:00;8.00;61.50
5192;DHT22;2615;44.524;11.284;2023-02-21T04:09:30;8.00;61.50
5192;DHT22;2615;44.524;11.284;2023-02-21T04:11:59;8.00;61.50
5192;DHT22;2615;44.524;11.284;2023-02-21T04:14:27;8.00;61.60
5192;DHT22;2615;44.524;11.284;2023-02-21T04:16:55;8.00;61.70
5192;DHT22;2615;44.524;11.284;2023-02-21T04:19:23;8.00;61.70
5192;DHT22;2615;44.524;11.284;2023-02-21T04:21:51;8.00;61.70
5192;DHT22;2615;44.524;11.284;2023-02-21T04:24:20;8.00;61.80
5192;DHT22;2615;44.524;11.284;2023-02-21T04:26:49;7.90;61.60
5192;DHT22;2615;44.524;11.284;2023-02-21T04:29:17;7.90;61.60
5192;DHT22;2615;44.524;11.284;2023-02-21T04:31:46;7.90;61.60
5192;DHT22;2615;44.524;11.284;2023-02-21T04:34:14;7.90;61.70
5192;DHT22;2615;44.524;11.284;2023-02-21T04:36:42;7.90;61.80
5192;DHT22;2615;44.524;11.284;2023-02-21T04:39:10;7.90;61.70
5192;DHT22;2615;44.524;11.284;2023-02-21T04:41:39;7.90;61.70
5192;DHT22;2615;44.524;11.284;2023-02-21T04:44:08;7.80;61.80
5192;DHT22;2615;44.524;11.284;2023-02-21T04:46:36;7.80;61.80
5192;DHT22;2615;44.524;11.284;2023-02-21T04:49:05;7.80;61.90
5192;DHT22;2615;44.524;11.284;2023-02-21T04:51:33;7.80;62.20
5192;DHT22;2615;44.524;11.284;2023-02-21T04:54:01;7.80;62.00
5192;DHT22;2615;44.524;11.284;2023-02-21T04:56:29;7.80;62.10
5192;DHT22;2615;44.524;11.284;2023-02-21T04:58:58;7.80;62.00
5192;DHT22;2615;44.524;11.284;2023-02-21T05:01:29;7.80;62.10
5192;DHT22;2615;44.524;11.284;2023-02-21T05:03:57;7.80;62.10
5192;DHT22;2615;44.524;11.284;2023-02-21T05:06:27;7.80;62.00
5192;DHT22;2615;44.524;11.284;2023-02-21T05:08:56;7.70;61.90
5192;DHT22;2615;44.524;11.284;2023-02-21T05:11:25;7.70;61.90
5192;DHT22;2615;44.524;11.284;2023-02-21T05:13:53;7.70;61.90
5192;DHT22;2615;44.524;11.284;2023-02-21T05:16:21;7.70;61.90
5192;DHT22;2615;44.524;11.284;2023-02-21T05:18:50;7.70;62.00
5192;DHT22;2615;44.524;11.284;2023-02-21T05:21:19;7.70;62.10
5192;DHT22;2615;44.524;11.284;2023-02-21T05:23:47;7.70;62.10
5192;DHT22;2615;44.524;11.284;2023-02-21T05:26:24;7.70;62.10
5192;DHT22;2615;44.524;11.284;2023-02-21T05:28:53;7.70;62.10
5192;DHT22;2615;44.524;11.284;2023-02-21T05:31:21;7.70;62.20
5192;DHT22;2615;44.524;11.284;2023-02-21T05:33:50;7.80;62.30
5192;DHT22;2615;44.524;11.284;2023-02-21T05:36:19;7.70;62.20
5192;DHT22;2615;44.524;11.284;2023-02-21T05:38:52;7.80;62.30
5192;DHT22;2615;44.524;11.284;2023-02-21T05:41:20;7.80;62.40
5192;DHT22;2615;44.524;11.284;2023-02-21T05:43:48;7.80;62.40
5192;DHT22;2615;44.524;11.284;2023-02-21T05:46:19;7.90;62.50
5192;DHT22;2615;44.524;11.284;2023-02-21T05:48:48;7.90;62.60
5192;DHT22;2615;44.524;11.284;2023-02-21T05:51:17;7.90;62.60
5192;DHT22;2615;44.524;11.284;2023-02-21T05:53:46;7.90;62.60
5192;DHT22;2615;44.524;11.284;2023-02-21T05:56:15;8.00;62.70
5192;DHT22;2615;44.524;11.284;2023-02-21T05:58:43;8.00;62.60
5192;DHT22;2615;44.524;11.284;2023-02-21T06:01:12;8.10;62.80
5192;DHT22;2615;44.524;11.284;2023-02-21T06:03:41;8.10;62.70
5192;DHT22;2615;44.524;11.284;2023-02-21T06:06:09;8.20;62.80
5192;DHT22;2615;44.524;11.284;2023-02-21T06:08:47;8.20;62.80
5192;DHT22;2615;44.524;11.284;2023-02-21T06:11:22;8.30;62.90
5192;DHT22;2615;44.524;11.284;2023-02-21T06:13:51;8.30;62.80
5192;DHT22;2615;44.524;11.284;2023-02-21T06:16:20;8.30;62.80
5192;DHT22;2615;44.524;11.284;2023-02-21T06:18:49;8.40;62.90
5192;DHT22;2615;44.524;11.284;2023-02-21T06:21:18;8.40;62.80
5192;DHT22;2615;44.524;11.284;2023-02-21T06:23:48;8.40;62.80
5192;DHT22;2615;44.524;11.284;2023-02-21T06:26:17;8.50;62.90
5192;DHT22;2615;44.524;11.284;2023-02-21T06:28:46;8.50;62.90
5192;DHT22;2615;44.524;11.284;2023-02-21T06:31:15;8.60;63.00
5192;DHT22;2615;44.524;11.284;2023-02-21T06:33:44;8.60;63.00
5192;DHT22;2615;44.524;11.284;2023-02-21T06:36:15;8.60;63.70
5192;DHT22;2615;44.524;11.284;2023-02-21T06:38:44;8.70;63.00
5192;DHT22;2615;44.524;11.284;2023-02-21T06:41:16;8.70;63.00
5192;DHT22;2615;44.524;11.284;2023-02-21T06:43:44;8.80;63.20
5192;DHT22;2615;44.524;11.284;2023-02-21T06:46:15;8.80;63.10
5192;DHT22;2615;44.524;11.284;2023-02-21T06:48:43;8.90;63.20
5192;DHT22;2615;44.524;11.284;2023-02-21T06:51:11;8.90;63.10
5192;DHT22;2615;44.524;11.284;2023-02-21T06:53:40;8.90;63.10
5192;DHT22;2615;44.524;11.284;2023-02-21T06:56:09;9.00;63.20
5192;DHT22;2615;44.524;11.284;2023-02-21T06:58:38;9.00;63.10
5192;DHT22;2615;44.524;11.284;2023-02-21T07:01:06;9.10;63.20
5192;DHT22;2615;44.524;11.284;2023-02-21T07:03:38;9.10;63.10
5192;DHT22;2615;44.524;11.284;2023-02-21T07:06:06;9.20;63.10
5192;DHT22;2615;44.524;11.284;2023-02-21T07:08:34;9.20;63.00
5192;DHT22;2615;44.524;11.284;2023-02-21T07:11:03;9.30;63.10
5192;DHT22;2615;44.524;11.284;2023-02-21T07:13:31;9.30;63.00
5192;DHT22;2615;44.524;11.284;2023-02-21T07:16:01;9.30;63.00
5192;DHT22;2615;44.524;11.284;2023-02-21T07:18:31;9.40;63.10
5192;DHT22;2615;44.524;11.284;2023-02-21T07:20:59;9.40;63.00
5192;DHT22;2615;44.524;11.284;2023-02-21T07:23:27;9.50;63.00
5192;DHT22;2615;44.524;11.284;2023-02-21T07:25:55;9.50;62.90
5192;DHT22;2615;44.524;11.284;2023-02-21T07:28:23;9.50;62.80
5192;DHT22;2615;44.524;11.284;2023-02-21T07:30:51;9.50;62.70
5192;DHT22;2615;44.524;11.284;2023-02-21T07:33:20;9.60;62.80
5192;DHT22;2615;44.524;11.284;2023-02-21T07:35:49;9.70;62.80
5192;DHT22;2615;44.524;11.284;2023-02-21T07:38:20;9.70;62.80
5192;DHT22;2615;44.524;11.284;2023-02-21T07:40:49;9.80;62.80
5192;DHT22;2615;44.524;11.284;2023-02-21T07:43:17;9.80;62.70
5192;DHT22;2615;44.524;11.284;2023-02-21T07:45:45;9.90;62.70
5192;DHT22;2615;44.524;11.284;2023-02-21T07:48:13;10.00;61.50
5192;DHT22;2615;44.524;11.284;2023-02-21T07:50:43;10.00;61.40
5192;DHT22;2615;44.524;11.284;2023-02-21T07:53:12;10.10;61.50
5192;DHT22;2615;44.524;11.284;2023-02-21T07:55:41;10.20;61.50
5192;DHT22;2615;44.524;11.284;2023-02-21T07:58:09;10.30;61.40
5192;DHT22;2615;44.524;11.284;2023-02-21T08:00:37;10.40;61.50
5192;DHT22;2615;44.524;11.284;2023-02-21T08:03:07;10.50;61.50
5192;DHT22;2615;44.524;11.284;2023-02-21T08:05:36;10.70;61.60
5192;DHT22;2615;44.524;11.284;2023-02-21T08:08:07;10.80;61.40
5192;DHT22;2615;44.524;11.284;2023-02-21T08:10:36;10.90;61.30
5192;DHT22;2615;44.524;11.284;2023-02-21T08:13:04;11.10;61.30
5192;DHT22;2615;44.524;11.284;2023-02-21T08:15:32;11.20;61.30
5192;DHT22;2615;44.524;11.284;2023-02-21T08:18:00;11.30;61.30
5192;DHT22;2615;44.524;11.284;2023-02-21T08:20:28;11.40;61.20
5192;DHT22;2615;44.524;11.284;2023-02-21T08:22:56;11.50;61.20
5192;DHT22;2615;44.524;11.284;2023-02-21T08:25:26;11.60;61.20
5192;DHT22;2615;44.524;11.284;2023-02-21T08:27:54;11.70;61.10
5192;DHT22;2615;44.524;11.284;2023-02-21T08:30:22;11.80;61.10
5192;DHT22;2615;44.524;11.284;2023-02-21T08:32:51;12.00;61.10
5192;DHT22;2615;44.524;11.284;2023-02-21T08:35:19;12.10;61.10
5192;DHT22;2615;44.524;11.284;2023-02-21T08:37:49;12.20;61.20
5192;DHT22;2615;44.524;11.284;2023-02-21T08:40:18;12.30;61.20
5192;DHT22;2615;44.524;11.284;2023-02-21T08:42:50;12.50;61.20
5192;DHT22;2615;44.524;11.284;2023-02-21T08:45:20;12.60;61.00
5192;DHT22;2615;44.524;11.284;2023-02-21T08:47:49;12.60;60.80
5192;DHT22;2615;44.524;11.284;2023-02-21T08:50:18;12.70;60.70
5192;DHT22;2615;44.524;11.284;2023-02-21T08:52:47;12.80;60.80
5192;DHT22;2615;44.524;11.284;2023-02-21T08:55:16;12.90;60.80
5192;DHT22;2615;44.524;11.284;2023-02-21T08:57:47;12.90;60.80
5192;DHT22;2615;44.524;11.284;2023-02-21T09:00:18;13.00;60.70
5192;DHT22;2615;44.524;11.284;2023-02-21T09:02:49;13.00;60.60
5192;DHT22;2615;44.524;11.284;2023-02-21T09:05:20;13.10;60.60
5192;DHT22;2615;44.524;11.284;2023-02-21T09:07:50;13.10;60.60
5192;DHT22;2615;44.524;11.284;2023-02-21T09:10:21;13.20;60.70
5192;DHT22;2615;44.524;11.284;2023-02-21T09:12:49;13.30;60.70
5192;DHT22;2615;44.524;11.284;2023-02-21T09:15:18;13.40;60.60
5192;DHT22;2615;44.524;11.284;2023-02-21T09:17:46;13.50;60.60
5192;DHT22;2615;44.524;11.284;2023-02-21T09:20:19;13.60;60.50
5192;DHT22;2615;44.524;11.284;2023-02-21T09:22:47;13.70;60.40
5192;DHT22;2615;44.524;11.284;2023-02-21T09:25:18;13.80;60.30
5192;DHT22;2615;44.524;11.284;2023-02-21T09:27:47;13.90;60.30
5192;DHT22;2615;44.524;11.284;2023-02-21T09:30:16;14.00;60.20
5192;DHT22;2615;44.524;11.284;2023-02-21T09:32:46;14.10;60.00
5192;DHT22;2615;44.524;11.284;2023-02-21T09:35:15;14.10;60.00
5192;DHT22;2615;44.524;11.284;2023-02-21T09:37:45;14.10;59.80
5192;DHT22;2615;44.524;11.284;2023-02-21T09:40:20;14.10;59.70
5192;DHT22;2615;44.524;11.284;2023-02-21T09:42:52;14.20;60.40
5192;DHT22;2615;44.524;11.284;2023-02-21T09:45:22;14.20;59.60
5192;DHT22;2615;44.524;11.284;2023-02-21T09:47:55;14.20;59.50
5192;DHT22;2615;44.524;11.284;2023-02-21T09:50:28;14.20;59.50
5192;DHT22;2615;44.524;11.284;2023-02-21T09:53:00;14.20;59.40
5192;DHT22;2615;44.524;11.284;2023-02-21T09:55:30;14.30;59.40
5192;DHT22;2615;44.524;11.284;2023-02-21T09:58:01;14.30;59.20
5192;DHT22;2615;44.524;11.284;2023-02-21T10:00:33;14.30;59.20
5192;DHT22;2615;44.524;11.284;2023-02-21T10:03:14;14.40;59.30
5192;DHT22;2615;44.524;11.284;2023-02-21T10:05:46;14.50;59.30
5192;DHT22;2615;44.524;11.284;2023-02-21T10:08:22;14.60;59.20
5192;DHT22;2615;44.524;11.284;2023-02-21T10:10:58;14.70;59.10
5192;DHT22;2615;44.524;11.284;2023-02-21T10:13:37;14.80;58.90
5192;DHT22;2615;44.524;11.284;2023-02-21T10:16:13;14.90;58.90
5192;DHT22;2615;44.524;11.284;2023-02-21T10:18:51;14.90;58.80
5192;DHT22;2615;44.524;11.284;2023-02-21T10:21:25;14.90;58.70
5192;DHT22;2615;44.524;11.284;2023-02-21T10:23:56;15.00;58.70
5192;DHT22;2615;44.524;11.284;2023-02-21T10:26:33;15.00;58.50
5192;DHT22;2615;44.524;11.284;2023-02-21T10:29:19;15.00;58.40
5192;DHT22;2615;44.524;11.284;2023-02-21T10:31:51;15.00;58.40
5192;DHT22;2615;44.524;11.284;2023-02-21T10:34:26;15.00;58.30
5192;DHT22;2615;44.524;11.284;2023-02-21T10:36:55;15.00;58.30
5192;DHT22;2615;44.524;11.284;2023-02-21T10:39:29;15.00;58.30
5192;DHT22;2615;44.524;11.284;2023-02-21T10:41:58;15.00;58.20
5192;DHT22;2615;44.524;11.284;2023-02-21T10:44:28;15.00;58.20
5192;DHT22;2615;44.524;11.284;2023-02-21T10:47:01;15.00;58.60
5192;DHT22;2615;44.524;11.284;2023-02-21T10:49:35;15.00;58.10
5192;DHT22;2615;44.524;11.284;2023-02-21T10:52:12;15.00;57.90
5192;DHT22;2615;44.524;11.284;2023-02-21T10:54:59;15.00;57.90
5192;DHT22;2615;44.524;11.284;2023-02-21T10:57:29;15.00;57.90
5192;DHT22;2615;44.524;11.284;2023-02-21T10:59:59;15.00;57.90
5192;DHT22;2615;44.524;11.284;2023-02-21T11:02:30;15.00;57.80
5192;DHT22;2615;44.524;11.284;2023-02-21T11:05:15;15.00;57.80
5192;DHT22;2615;44.524;11.284;2023-02-21T11:07:56;15.00;57.80
5192;DHT22;2615;44.524;11.284;2023-02-21T11:10:30;15.00;57.80
5192;DHT22;2615;44.524;11.284;2023-02-21T11:13:13;15.00;57.70
5192;DHT22;2615;44.524;11.284;2023-02-21T11:15:42;15.00;57.70
5192;DHT22;2615;44.524;11.284;2023-02-21T11:18:16;15.00;57.60
5192;DHT22;2615;44.524;11.284;2023-02-21T11:20:46;15.00;57.60
5192;DHT22;2615;44.524;11.284;2023-02-21T11:23:22;15.00;57.60
5192;DHT22;2615;44.524;11.284;2023-02-21T11:25:57;15.00;57.60
5192;DHT22;2615;44.524;11.284;2023-02-21T11:28:26;15.00;57.50
5192;DHT22;2615;44.524;11.284;2023-02-21T11:31:07;15.00;57.50
5192;DHT22;2615;44.524;11.284;2023-02-21T11:33:36;15.00;57.50
5192;DHT22;2615;44.524;11.284;2023-02-21T11:36:11;15.10;57.60
5192;DHT22;2615;44.524;11.284;2023-02-21T11:38:41;15.10;57.50
5192;DHT22;2615;44.524;11.284;2023-02-21T11:41:18;15.10;57.50
5192;DHT22;2615;44.524;11.284;2023-02-21T11:43:48;15.10;57.40
5192;DHT22;2615;44.524;11.284;2023-02-21T11:46:23;15.10;57.40
5192;DHT22;2615;44.524;11.284;2023-02-21T11:49:01;15.10;57.30
5192;DHT22;2615;44.524;11.284;2023-02-21T11:51:38;15.10;57.30
5192;DHT22;2615;44.524;11.284;2023-02-21T11:54:07;15.20;57.40
5192;DHT22;2615;44.524;11.284;2023-02-21T11:56:46;15.20;57.40
5192;DHT22;2615;44.524;11.284;2023-02-21T11:59:27;15.20;57.40
5192;DHT22;2615;44.524;11.284;2023-02-21T12:02:12;15.20;57.30
5192;DHT22;2615;44.524;11.284;2023-02-21T12:04:53;15.20;57.30
5192;DHT22;2615;44.524;11.284;2023-02-21T12:07:32;15.20;57.20
5192;DHT22;2615;44.524;11.284;2023-02-21T12:10:18;15.20;57.20
5192;DHT22;2615;44.524;11.284;2023-02-21T12:12:54;15.20;57.20
5192;DHT22;2615;44.524;11.284;2023-02-21T12:15:29;15.20;57.20
5192;DHT22;2615;44.524;11.284;2023-02-21T12:18:16;15.20;57.20
5192;DHT22;2615;44.524;11.284;2023-02-21T12:21:09;15.20;57.20
5192;DHT22;2615;44.524;11.284;2023-02-21T12:23:49;15.20;57.10
5192;DHT22;2615;44.524;11.284;2023-02-21T12:26:30;15.30;57.10
5192;DHT22;2615;44.524;11.284;2023-02-21T12:29:08;15.30;57.00
5192;DHT22;2615;44.524;11.284;2023-02-21T12:31:52;15.30;57.00
5192;DHT22;2615;44.524;11.284;2023-02-21T12:34:34;15.30;57.00
5192;DHT22;2615;44.524;11.284;2023-02-21T12:37:14;15.30;57.00
5192;DHT22;2615;44.524;11.284;2023-02-21T12:39:59;15.30;57.00
5192;DHT22;2615;44.524;11.284;2023-02-21T12:45:43;15.40;56.90
5192;DHT22;2615;44.524;11.284;2023-02-21T12:48:23;15.40;56.70
5192;DHT22;2615;44.524;11.284;2023-02-21T12:50:54;15.40;56.70
5192;DHT22;2615;44.524;11.284;2023-02-21T12:53:28;15.40;56.70
5192;DHT22;2615;44.524;11.284;2023-02-21T12:56:04;15.40;56.70
5192;DHT22;2615;44.524;11.284;2023-02-21T12:58:37;15.40;56.60
5192;DHT22;2615;44.524;11.284;2023-02-21T13:01:13;15.40;56.60
5192;DHT22;2615;44.524;11.284;2023-02-21T13:03:55;15.40;56.70
5192;DHT22;2615;44.524;11.284;2023-02-21T13:06:32;15.40;56.60
5192;DHT22;2615;44.524;11.284;2023-02-21T13:09:11;15.40;56.60
5192;DHT22;2615;44.524;11.284;2023-02-21T13:11:45;15.50;56.70
5192;DHT22;2615;44.524;11.284;2023-02-21T13:14:19;15.50;56.60
5192;DHT22;2615;44.524;11.284;2023-02-21T13:16:51;15.50;56.50
5192;DHT22;2615;44.524;11.284;2023-02-21T13:19:20;15.40;56.40
5192;DHT22;2615;44.524;11.284;2023-02-21T13:21:58;15.30;56.40
5192;DHT22;2615;44.524;11.284;2023-02-21T13:24:51;15.30;56.40
5192;DHT22;2615;44.524;11.284;2023-02-21T13:27:48;15.30;56.60
5192;DHT22;2615;44.524;11.284;2023-02-21T13:30:22;15.30;56.50
5192;DHT22;2615;44.524;11.284;2023-02-21T13:32:54;15.30;56.50
5192;DHT22;2615;44.524;11.284;2023-02-21T13:35:30;15.40;56.60
5192;DHT22;2615;44.524;11.284;2023-02-21T13:37:59;15.40;56.60
5192;DHT22;2615;44.524;11.284;2023-02-21T13:40:35;15.50;56.70
5192;DHT22;2615;44.524;11.284;2023-02-21T13:43:09;15.50;56.60
5192;DHT22;2615;44.524;11.284;2023-02-21T13:45:38;15.70;56.70
5192;DHT22;2615;44.524;11.284;2023-02-21T13:48:19;15.80;56.70
5192;DHT22;2615;44.524;11.284;2023-02-21T13:50:48;16.10;56.80
5192;DHT22;2615;44.524;11.284;2023-02-21T13:53:18;16.30;56.70
5192;DHT22;2615;44.524;11.284;2023-02-21T13:56:11;16.70;56.80
5192;DHT22;2615;44.524;11.284;2023-02-21T14:01:40;17.50;55.50
5192;DHT22;2615;44.524;11.284;2023-02-21T14:04:49;17.60;55.80
5192;DHT22;2615;44.524;11.284;2023-02-21T14:07:58;17.80;55.40
5192;DHT22;2615;44.524;11.284;2023-02-21T14:10:35;18.00;55.10
5192;DHT22;2615;44.524;11.284;2023-02-21T14:13:07;18.00;54.90
5192;DHT22;2615;44.524;11.284;2023-02-21T14:15:48;17.90;54.70
5192;DHT22;2615;44.524;11.284;2023-02-21T14:18:20;17.90;54.40
5192;DHT22;2615;44.524;11.284;2023-02-21T14:20:51;17.90;54.20
5192;DHT22;2615;44.524;11.284;2023-02-21T14:23:23;17.90;54.00
5192;DHT22;2615;44.524;11.284;2023-02-21T14:25:57;17.80;53.90
5192;DHT22;2615;44.524;11.284;2023-02-21T14:28:48;17.80;53.80
5192;DHT22;2615;44.524;11.284;2023-02-21T14:31:46;17.70;53.50
5192;DHT22;2615;44.524;11.284;2023-02-21T14:34:20;17.60;53.60
5192;DHT22;2615;44.524;11.284;2023-02-21T14:36:50;17.50;53.60
5192;DHT22;2615;44.524;11.284;2023-02-21T14:39:19;17.40;53.60
5192;DHT22;2615;44.524;11.284;2023-02-21T14:42:23;17.30;53.60
5192;DHT22;2615;44.524;11.284;2023-02-21T14:45:24;17.10;53.40
5192;DHT22;2615;44.524;11.284;2023-02-21T14:48:13;17.00;53.40
5192;DHT22;2615;44.524;11.284;2023-02-21T14:51:07;16.90;53.50
5192;DHT22;2615;44.524;11.284;2023-02-21T14:54:05;16.80;53.50
5192;DHT22;2615;44.524;11.284;2023-02-21T14:57:14;16.70;53.50
5192;DHT22;2615;44.524;11.284;2023-02-21T15:00:05;16.60;53.60
5192;DHT22;2615;44.524;11.284;2023-02-21T15:02:41;16.60;53.60
5192;DHT22;2615;44.524;11.284;2023-02-21T15:05:16;16.50;53.60
5192;DHT22;2615;44.524;11.284;2023-02-21T15:07:55;16.50;53.60
5192;DHT22;2615;44.524;11.284;2023-02-21T15:10:26;16.40;53.70
5192;DHT22;2615;44.524;11.284;2023-02-21T15:12:57;16.40;53.70
5192;DHT22;2615;44.524;11.284;2023-02-21T15:15:26;16.40;53.70
5192;DHT22;2615;44.524;11.284;2023-02-21T15:18:02;16.50;53.70
5192;DHT22;2615;44.524;11.284;2023-02-21T15:20:33;16.50;53.80
5192;DHT22;2615;44.524;11.284;2023-02-21T15:23:10;16.80;54.00
5192;DHT22;2615;44.524;11.284;2023-02-21T15:25:39;17.10;54.00
5192;DHT22;2615;44.524;11.284;2023-02-21T15:28:19;17.50;53.80
5192;DHT22;2615;44.524;11.284;2023-02-21T15:30:57;17.80;53.40
5192;DHT22;2615;44.524;11.284;2023-02-21T15:33:28;18.00;53.00
5192;DHT22;2615;44.524;11.284;2023-02-21T15:36:02;18.20;53.00
5192;DHT22;2615;44.524;11.284;2023-02-21T15:38:32;18.40;52.80
5192;DHT22;2615;44.524;11.284;2023-02-21T15:41:06;18.70;52.80
5192;DHT22;2615;44.524;11.284;2023-02-21T15:43:43;18.90;52.40
5192;DHT22;2615;44.524;11.284;2023-02-21T15:46:16;18.80;51.80
5192;DHT22;2615;44.524;11.284;2023-02-21T15:48:46;18.60;51.60
5192;DHT22;2615;44.524;11.284;2023-02-21T15:51:16;18.30;51.50
5192;DHT22;2615;44.524;11.284;2023-02-21T15:54:06;18.00;51.40
5192;DHT22;2615;44.524;11.284;2023-02-21T15:56:34;17.60;51.40
5192;DHT22;2615;44.524;11.284;2023-02-21T15:59:17;17.30;51.50
5192;DHT22;2615;44.524;11.284;2023-02-21T16:02:11;17.10;51.60
5192;DHT22;2615;44.524;11.284;2023-02-21T16:04:41;16.80;51.70
5192;DHT22;2615;44.524;11.284;2023-02-21T16:07:18;16.50;51.80
5192;DHT22;2615;44.524;11.284;2023-02-21T16:09:56;16.40;52.00
5192;DHT22;2615;44.524;11.284;2023-02-21T16:12:28;16.20;52.10
5192;DHT22;2615;44.524;11.284;2023-02-21T16:14:59;16.00;52.20
5192;DHT22;2615;44.524;11.284;2023-02-21T16:17:30;15.80;52.20
5192;DHT22;2615;44.524;11.284;2023-02-21T16:20:00;15.70;52.40
5192;DHT22;2615;44.524;11.284;2023-02-21T16:22:34;15.60;52.60
5192;DHT22;2615;44.524;11.284;2023-02-21T16:25:23;15.40;52.60
5192;DHT22;2615;44.524;11.284;2023-02-21T16:27:53;15.30;52.80
5192;DHT22;2615;44.524;11.284;2023-02-21T16:30:32;15.10;52.80
5192;DHT22;2615;44.524;11.284;2023-02-21T16:33:18;15.00;53.00
5192;DHT22;2615;44.524;11.284;2023-02-21T16:35:46;14.90;53.10
5192;DHT22;2615;44.524;11.284;2023-02-21T16:38:17;14.80;53.20
5192;DHT22;2615;44.524;11.284;2023-02-21T16:40:46;14.70;53.30
5192;DHT22;2615;44.524;11.284;2023-02-21T16:43:16;14.60;53.40
5192;DHT22;2615;44.524;11.284;2023-02-21T16:45:46;14.50;53.50
5192;DHT22;2615;44.524;11.284;2023-02-21T16:48:17;14.40;53.60
5192;DHT22;2615;44.524;11.284;2023-02-21T16:50:48;14.30;53.70
5192;DHT22;2615;44.524;11.284;2023-02-21T16:53:19;14.20;53.80
5192;DHT22;2615;44.524;11.284;2023-02-21T16:55:48;14.10;53.90